Time;durP1;ratioP1;P1;durP2;ratioP2;P2;SDS_P1;SDS_P2;PMS_P1;PMS_P2;Temp;Humidity;BMP_temperature;BMP_pressure;BME280_temperature;BME280_humidity;BME280_pressure;Samples;Min_cycle;Max_cycle;Signal;HPM_P1;HPM_P2
2022/10/16 00:00:45;;;;;;;7.47;5.30;;;;;;;12.59;100.00;100492.03;5041042;28;20207;-73
2022/10/16 00:03:13;;;;;;;7.50;5.07;;;;;;;12.55;100.00;100493.06;5043950;28;20591;-73
2022/10/16 00:05:41;;;;;;;7.77;5.00;;;;;;;12.51;100.00;100494.94;5043225;28;20343;-72
2022/10/16 00:08:08;;;;;;;7.67;4.43;;;;;;;12.46;100.00;100497.72;5044336;28;20220;-70
2022/10/16 00:10:35;;;;;;;6.83;4.67;;;;;;;12.44;100.00;100502.13;5046396;28;20270;-72
2022/10/16 00:13:02;;;;;;;7.53;4.60;;;;;;;12.45;100.00;100502.97;5042169;28;20207;-72
2022/10/16 00:15:28;;;;;;;7.17;4.70;;;;;;;12.45;100.00;100513.44;5045011;28;20650;-72
2022/10/16 00:17:56;;;;;;;7.27;4.67;;;;;;;12.43;100.00;100510.03;5046565;28;20226;-73
2022/10/16 00:20:22;;;;;;;6.70;4.57;;;;;;;12.40;100.00;100516.25;5045734;28;20741;-70
2022/10/16 00:22:48;;;;;;;8.07;4.90;;;;;;;12.40;100.00;100513.63;5040151;28;20205;-72
2022/10/16 00:25:15;;;;;;;8.87;4.90;;;;;;;12.37;100.00;100516.34;5025459;28;20216;-72
2022/10/16 00:27:42;;;;;;;6.90;4.63;;;;;;;12.37;100.00;100516.34;5046507;28;20239;-69
2022/10/16 00:30:09;;;;;;;7.63;4.53;;;;;;;12.36;100.00;100524.25;5044722;28;20188;-72
2022/10/16 00:32:35;;;;;;;8.33;5.67;;;;;;;12.33;100.00;100522.59;5043681;28;20208;-71
2022/10/16 00:35:04;;;;;;;8.40;5.33;;;;;;;12.34;100.00;100524.28;5043598;28;20215;-73
2022/10/16 00:37:30;;;;;;;11.13;5.67;;;;;;;12.39;100.00;100527.59;5041694;28;20215;-72
2022/10/16 00:39:57;;;;;;;9.03;5.50;;;;;;;12.40;100.00;100528.44;5041355;28;20214;-70
2022/10/16 00:42:23;;;;;;;8.23;5.40;;;;;;;12.39;100.00;100524.97;5045001;28;20607;-72
2022/10/16 00:44:52;;;;;;;9.70;6.03;;;;;;;12.40;100.00;100528.44;5037973;28;20242;-72
2022/10/16 00:47:21;;;;;;;9.40;5.70;;;;;;;12.36;100.00;100527.69;5024564;28;20249;-72
2022/10/16 00:49:52;;;;;;;9.83;5.43;;;;;;;12.34;100.00;100526.06;5024831;28;20991;-73
2022/10/16 00:52:20;;;;;;;9.70;6.10;;;;;;;12.28;100.00;100524.50;5033521;28;20242;-73
2022/10/16 00:54:47;;;;;;;7.97;5.47;;;;;;;12.23;100.00;100518.59;5030066;28;20690;-72
2022/10/16 00:57:14;;;;;;;9.77;5.30;;;;;;;12.18;100.00;100526.56;5028818;28;20285;-73
2022/10/16 00:59:43;;;;;;;9.43;5.37;;;;;;;12.15;100.00;100518.00;5027096;28;20211;-71
2022/10/16 01:02:11;;;;;;;7.93;4.90;;;;;;;12.10;100.00;100520.75;5024877;28;20657;-72
2022/10/16 01:04:42;;;;;;;8.93;4.97;;;;;;;12.06;100.00;100514.78;5023503;28;20212;-71
2022/10/16 01:07:15;;;;;;;7.63;5.00;;;;;;;12.01;100.00;100519.31;5026724;28;20234;-70
2022/10/16 01:09:52;;;;;;;7.27;4.90;;;;;;;11.96;100.00;100518.63;5020836;28;20872;-69
2022/10/16 01:12:27;;;;;;;7.93;5.43;;;;;;;11.90;100.00;100519.66;5028067;28;20187;-72
2022/10/16 01:14:56;;;;;;;7.93;5.10;;;;;;;11.86;100.00;100530.25;5024066;28;20207;-71
2022/10/16 01:17:32;;;;;;;8.47;4.60;;;;;;;11.82;100.00;100531.25;5025784;28;20605;-73
2022/10/16 01:20:08;;;;;;;8.00;5.03;;;;;;;11.76;100.00;100527.06;5021805;28;20245;-73
2022/10/16 01:22:44;;;;;;;4.77;3.50;;;;;;;11.69;100.00;100531.63;5025981;28;20194;-72
2022/10/16 01:25:23;;;;;;;7.10;4.70;;;;;;;11.62;100.00;100539.72;5022506;28;20228;-72
2022/10/16 01:27:52;;;;;;;6.13;4.70;;;;;;;11.53;100.00;100539.09;5021720;28;20234;-72
2022/10/16 01:30:23;;;;;;;9.53;5.27;;;;;;;11.49;100.00;100534.06;5025698;28;20207;-73
2022/10/16 01:32:58;;;;;;;11.93;4.70;;;;;;;11.45;100.00;100529.81;5029750;28;20576;-70
2022/10/16 01:35:27;;;;;;;8.73;4.70;;;;;;;11.37;100.00;100537.88;5027849;28;20560;-72
2022/10/16 01:38:00;;;;;;;6.60;4.27;;;;;;;11.30;100.00;100541.59;5025237;28;20222;-72
2022/10/16 01:40:29;;;;;;;7.30;4.73;;;;;;;11.24;100.00;100542.63;5027968;28;20669;-72
2022/10/16 01:43:01;;;;;;;7.30;4.43;;;;;;;11.24;100.00;100544.38;5032035;28;20195;-72
2022/10/16 01:45:30;;;;;;;6.37;4.23;;;;;;;11.18;100.00;100543.66;5022380;28;20583;-73
2022/10/16 01:47:57;;;;;;;6.97;4.33;;;;;;;11.19;100.00;100547.13;5018389;28;20227;-71
2022/10/16 01:50:25;;;;;;;7.23;4.50;;;;;;;11.20;100.00;100548.81;5022629;28;20192;-72
2022/10/16 01:52:54;;;;;;;7.17;4.67;;;;;;;11.22;100.00;100556.59;5025299;28;20254;-72
2022/10/16 01:55:25;;;;;;;7.00;4.67;;;;;;;11.22;100.00;100552.28;5024912;28;20692;-72
2022/10/16 01:57:54;;;;;;;11.53;5.70;;;;;;;11.28;100.00;100553.84;5024464;28;20603;-72
2022/10/16 02:00:24;;;;;;;7.63;5.20;;;;;;;11.30;100.00;100559.84;5025722;28;20452;-72
2022/10/16 02:02:55;;;;;;;6.53;4.23;;;;;;;11.31;100.00;100558.94;5024350;28;20206;-73
2022/10/16 02:05:25;;;;;;;10.40;5.40;;;;;;;11.32;100.00;100560.66;5021873;28;20265;-71
2022/10/16 02:07:51;;;;;;;8.33;5.40;;;;;;;11.32;100.00;100565.88;5024486;28;20231;-72
2022/10/16 02:10:18;;;;;;;8.23;4.93;;;;;;;11.34;100.00;100567.56;5023242;28;20574;-72
2022/10/16 02:12:48;;;;;;;9.23;5.43;;;;;;;11.41;100.00;100575.19;5022432;28;20548;-73
2022/10/16 02:15:15;;;;;;;8.90;5.40;;;;;;;11.51;100.00;100577.47;5022662;28;20204;-70
2022/10/16 02:17:43;;;;;;;10.03;6.13;;;;;;;11.60;100.00;100578.09;5022015;28;20230;-69
2022/10/16 02:20:10;;;;;;;9.17;5.83;;;;;;;11.64;100.00;100575.31;5025754;28;20199;-71
2022/10/16 02:22:41;;;;;;;10.60;5.93;;;;;;;11.71;100.00;100583.81;5028169;28;20196;-72
2022/10/16 02:25:12;;;;;;;8.47;5.43;;;;;;;11.77;100.00;100578.44;5029450;28;20672;-72
2022/10/16 02:27:44;;;;;;;9.57;5.23;;;;;;;11.81;100.00;100580.03;5045194;22;20243;-71
2022/10/16 02:30:15;;;;;;;10.37;5.83;;;;;;;11.88;100.00;100583.31;5046550;28;20674;-71
2022/10/16 02:32:46;;;;;;;7.53;5.10;;;;;;;11.95;100.00;100581.38;5042280;28;20218;-71
2022/10/16 02:35:14;;;;;;;10.03;6.23;;;;;;;12.03;100.00;100577.63;5045071;28;20215;-72
2022/10/16 02:37:41;;;;;;;10.10;6.17;;;;;;;12.08;100.00;100586.16;5042149;28;20200;-72
2022/10/16 02:40:09;;;;;;;11.17;6.10;;;;;;;12.17;100.00;100589.34;5041084;28;20199;-72
2022/10/16 02:42:39;;;;;;;10.50;6.10;;;;;;;12.23;100.00;100594.41;5047234;22;20235;-70
2022/10/16 02:45:07;;;;;;;9.23;6.17;;;;;;;12.29;100.00;100596.78;5021237;28;20204;-70
2022/10/16 02:47:34;;;;;;;13.53;7.00;;;;;;;12.30;100.00;100601.13;5022913;28;20491;-70
2022/10/16 02:50:02;;;;;;;11.30;6.87;;;;;;;12.35;100.00;100598.34;5036347;28;20200;-73
2022/10/16 02:52:29;;;;;;;10.83;6.20;;;;;;;12.36;100.00;100600.06;5039350;28;20192;-71
2022/10/16 02:54:55;;;;;;;9.77;5.97;;;;;;;12.40;100.00;100593.81;5025947;28;20303;-71
2022/10/16 02:57:23;;;;;;;11.50;6.53;;;;;;;12.44;100.00;100590.19;5046210;28;20298;-71
2022/10/16 02:59:49;;;;;;;9.57;6.17;;;;;;;12.50;100.00;100587.34;5050198;28;20203;-70
2022/10/16 03:02:15;;;;;;;10.77;6.17;;;;;;;12.51;100.00;100586.47;5055947;28;20590;-70
2022/10/16 03:04:42;;;;;;;15.77;6.60;;;;;;;12.54;100.00;100585.50;5049305;28;20207;-71
2022/10/16 03:07:09;;;;;;;10.10;5.93;;;;;;;12.54;100.00;100585.50;5052446;28;20216;-72
2022/10/16 03:09:36;;;;;;;11.07;6.17;;;;;;;12.59;100.00;100587.03;5048771;28;20201;-71
2022/10/16 03:12:02;;;;;;;12.33;6.63;;;;;;;12.61;100.00;100585.25;5042903;28;20532;-71
2022/10/16 03:14:29;;;;;;;11.07;7.20;;;;;;;12.62;100.00;100589.53;5043818;28;20420;-71
2022/10/16 03:16:55;;;;;;;13.90;7.37;;;;;;;12.64;100.00;100602.56;5035770;28;20691;-72
2022/10/16 03:19:21;;;;;;;11.10;6.73;;;;;;;12.65;100.00;100592.06;5051908;28;20721;-70
2022/10/16 03:21:48;;;;;;;9.20;6.47;;;;;;;12.64;100.00;100590.34;5044808;28;20204;-70
2022/10/16 03:24:16;;;;;;;11.97;6.17;;;;;;;12.63;100.00;100593.88;5051279;28;20209;-70
2022/10/16 03:26:43;;;;;;;13.63;6.70;;;;;;;12.63;100.00;100599.09;5043198;28;20214;-71
2022/10/16 03:29:11;;;;;;;14.93;6.60;;;;;;;12.66;100.00;100603.38;5046463;28;20336;-70
2022/10/16 03:31:37;;;;;;;9.60;5.93;;;;;;;12.67;100.00;100592.00;5044724;28;20202;-70
2022/10/16 03:34:03;;;;;;;10.60;6.90;;;;;;;12.68;100.00;100594.56;5046558;28;20412;-73
2022/10/16 03:36:30;;;;;;;9.53;6.30;;;;;;;12.69;100.00;100601.50;5042678;28;20420;-69
2022/10/16 03:38:56;;;;;;;11.00;7.10;;;;;;;12.72;100.00;100599.66;5046883;28;20257;-72
2022/10/16 03:41:24;;;;;;;10.70;6.80;;;;;;;12.74;100.00;100600.50;5048767;28;20225;-71
2022/10/16 03:43:50;;;;;;;10.53;6.97;;;;;;;12.74;100.00;100598.72;5054906;28;20199;-70
2022/10/16 03:46:17;;;;;;;10.17;7.03;;;;;;;12.78;100.00;100594.25;5042229;28;20201;-71
2022/10/16 03:48:43;;;;;;;12.47;6.60;;;;;;;12.78;100.00;100602.09;5047236;28;20637;-72
2022/10/16 03:51:10;;;;;;;12.03;7.50;;;;;;;12.79;100.00;100607.28;5028604;28;20617;-72
2022/10/16 03:53:36;;;;;;;10.90;7.10;;;;;;;12.82;100.00;100627.22;5045373;28;20263;-71
2022/10/16 03:56:03;;;;;;;10.87;7.23;;;;;;;12.83;100.00;100623.72;5042039;28;20199;-71
2022/10/16 03:58:30;;;;;;;11.50;6.67;;;;;;;12.84;100.00;100626.28;5044947;28;20209;-72
2022/10/16 04:00:57;;;;;;;10.80;6.47;;;;;;;12.86;100.00;100624.44;5044746;28;20571;-71
2022/10/16 04:03:23;;;;;;;9.23;6.40;;;;;;;12.88;100.00;100635.72;5029379;28;20227;-72
2022/10/16 04:05:50;;;;;;;10.07;6.63;;;;;;;12.88;100.00;100630.47;5040053;28;20257;-71
2022/10/16 04:08:16;;;;;;;9.80;6.83;;;;;;;12.91;100.00;100626.03;5050309;28;20272;-70
2022/10/16 04:10:43;;;;;;;8.27;6.00;;;;;;;12.91;100.00;100626.91;5043295;28;20213;-72
2022/10/16 04:13:10;;;;;;;10.40;6.63;;;;;;;12.93;100.00;100627.72;5044328;28;20205;-72
2022/10/16 04:15:38;;;;;;;8.20;5.80;;;;;;;12.95;100.00;100628.50;5046064;28;20651;-72
2022/10/16 04:18:08;;;;;;;9.37;5.83;;;;;;;12.95;100.00;100633.75;5042868;28;20222;-71
2022/10/16 04:20:34;;;;;;;8.47;5.97;;;;;;;12.97;100.00;100629.31;5042019;28;20566;-72
2022/10/16 04:23:01;;;;;;;9.37;5.90;;;;;;;12.99;100.00;100634.47;5045307;28;20199;-71
2022/10/16 04:25:27;;;;;;;8.97;5.87;;;;;;;13.01;100.00;100645.75;5046145;28;20203;-71
2022/10/16 04:27:54;;;;;;;9.17;6.20;;;;;;;13.02;100.00;100652.69;5029864;28;20224;-72
2022/10/16 04:30:21;;;;;;;8.70;6.03;;;;;;;13.00;100.00;100651.91;5046226;28;20716;-72
2022/10/16 04:32:50;;;;;;;9.63;5.93;;;;;;;12.96;100.00;100645.91;5027341;28;20714;-71
2022/10/16 04:35:16;;;;;;;10.83;6.67;;;;;;;12.95;100.00;100653.84;5038631;28;20210;-70
2022/10/16 04:37:43;;;;;;;8.60;5.70;;;;;;;12.88;100.00;100651.41;5041819;28;20215;-72
2022/10/16 04:40:10;;;;;;;6.67;5.03;;;;;;;12.83;100.00;100650.72;5043625;28;20277;-71
2022/10/16 04:42:36;;;;;;;7.80;5.53;;;;;;;12.79;100.00;100654.38;5042233;28;20502;-71
2022/10/16 04:45:03;;;;;;;8.43;5.40;;;;;;;12.77;100.00;100652.69;5043455;28;20206;-72
2022/10/16 04:47:29;;;;;;;7.53;5.17;;;;;;;12.73;100.00;100645.88;5040508;28;20228;-72
2022/10/16 04:49:58;;;;;;;8.03;5.30;;;;;;;12.71;100.00;100645.06;5045475;28;20682;-72
2022/10/16 04:52:26;;;;;;;6.87;5.20;;;;;;;12.68;100.00;100632.94;5042746;28;20602;-72
2022/10/16 04:54:53;;;;;;;8.10;5.63;;;;;;;12.66;100.00;100634.75;5033069;28;20728;-71
2022/10/16 04:57:20;;;;;;;8.57;6.30;;;;;;;12.62;100.00;100641.00;5041773;28;20212;-72
2022/10/16 04:59:46;;;;;;;8.07;5.70;;;;;;;12.62;100.00;100641.84;5041863;28;20238;-72
2022/10/16 05:02:12;;;;;;;9.90;6.43;;;;;;;12.61;100.00;100645.41;5047944;28;20205;-71
2022/10/16 05:04:39;;;;;;;11.70;6.20;;;;;;;12.57;100.00;100642.94;5043209;28;20208;-72
2022/10/16 05:07:07;;;;;;;8.60;5.80;;;;;;;12.53;100.00;100643.94;5042203;28;20196;-69
2022/10/16 05:09:33;;;;;;;9.10;6.13;;;;;;;12.51;100.00;100649.22;5028580;28;20203;-71
2022/10/16 05:11:59;;;;;;;7.30;5.50;;;;;;;12.47;100.00;100648.47;5046430;28;20556;-70
2022/10/16 05:14:26;;;;;;;7.70;5.87;;;;;;;12.49;100.00;100651.03;5046106;28;20220;-72
2022/10/16 05:16:52;;;;;;;6.97;4.97;;;;;;;12.52;100.00;100653.53;5044450;28;20200;-72
2022/10/16 05:19:19;;;;;;;7.23;5.07;;;;;;;12.54;100.00;100656.97;5039655;28;20244;-72
2022/10/16 05:21:45;;;;;;;7.00;5.57;;;;;;;12.55;100.00;100658.66;5047181;28;20195;-70
2022/10/16 05:24:13;;;;;;;8.03;5.77;;;;;;;12.54;100.00;100666.56;5046978;28;20667;-72
2022/10/16 05:26:40;;;;;;;8.37;5.63;;;;;;;12.54;100.00;100669.19;5038428;28;20636;-70
2022/10/16 05:29:06;;;;;;;9.33;5.83;;;;;;;12.55;100.00;100663.91;5043078;28;20224;-71
2022/10/16 05:31:33;;;;;;;10.20;6.27;;;;;;;12.59;100.00;100664.66;5041859;28;20203;-72
2022/10/16 05:34:00;;;;;;;9.07;6.10;;;;;;;12.60;100.00;100667.22;5047019;28;20273;-72
2022/10/16 05:36:27;;;;;;;10.43;6.50;;;;;;;12.61;100.00;100673.28;5041009;28;20234;-70
2022/10/16 05:38:53;;;;;;;12.03;6.40;;;;;;;12.62;100.00;100670.63;5044790;28;20212;-72
2022/10/16 05:41:21;;;;;;;11.40;6.20;;;;;;;12.63;100.00;100667.13;5046673;28;20256;-72
2022/10/16 05:43:48;;;;;;;11.90;7.17;;;;;;;12.65;100.00;100672.31;5040515;28;20202;-72
2022/10/16 05:46:15;;;;;;;9.63;6.57;;;;;;;12.67;100.00;100673.09;5043380;28;20455;-70
2022/10/16 05:48:41;;;;;;;11.23;6.83;;;;;;;12.71;100.00;100682.53;5031432;28;20756;-72
2022/10/16 05:51:11;;;;;;;9.60;6.47;;;;;;;12.76;100.00;100687.63;5042901;28;20194;-72
2022/10/16 05:53:39;;;;;;;13.57;6.60;;;;;;;12.82;100.00;100687.41;5044073;28;20205;-72
2022/10/16 05:56:06;;;;;;;9.63;6.63;;;;;;;12.88;100.00;100692.44;5045165;28;20198;-71
2022/10/16 05:58:36;;;;;;;10.37;6.50;;;;;;;12.92;100.00;100688.78;5027143;28;20226;-71
2022/10/16 06:01:06;;;;;;;10.53;6.53;;;;;;;12.98;100.00;100693.84;5053268;28;20196;-71
2022/10/16 06:03:33;;;;;;;12.80;7.03;;;;;;;13.01;100.00;100698.09;5048065;28;20276;-71
2022/10/16 06:05:59;;;;;;;10.73;7.33;;;;;;;12.99;100.00;100708.59;5049119;28;20206;-72
2022/10/16 06:08:26;;;;;;;10.20;6.60;;;;;;;12.98;100.00;100711.28;5049832;28;20224;-70
2022/10/16 06:11:02;;;;;;;10.13;6.30;;;;;;;12.99;100.00;100723.47;5048918;28;20551;-72
2022/10/16 06:13:30;;;;;;;10.43;6.67;;;;;;;12.99;100.00;100724.31;5044909;28;20195;-72
2022/10/16 06:15:59;;;;;;;10.60;6.37;;;;;;;13.05;100.00;100731.97;5046157;28;20198;-70
2022/10/16 06:18:26;;;;;;;10.93;6.80;;;;;;;13.11;100.00;100735.28;5047845;28;20215;-72
2022/10/16 06:20:53;;;;;;;8.27;6.03;;;;;;;13.16;100.00;100728.13;5045082;28;20200;-71
2022/10/16 06:23:19;;;;;;;9.53;6.20;;;;;;;13.17;100.00;100730.66;5045947;28;20208;-72
2022/10/16 06:25:46;;;;;;;10.53;7.20;;;;;;;13.17;100.00;100732.44;5048113;28;20208;-69
2022/10/16 06:28:14;;;;;;;10.47;6.57;;;;;;;13.16;100.00;100731.59;5043335;28;20326;-71
2022/10/16 06:30:40;;;;;;;12.30;7.70;;;;;;;13.12;100.00;100731.72;5046706;28;20191;-72
2022/10/16 06:33:08;;;;;;;12.73;6.83;;;;;;;13.10;100.00;100728.31;5041997;28;20203;-69
2022/10/16 06:35:35;;;;;;;12.70;8.07;;;;;;;13.08;100.00;100729.22;5049909;28;20280;-72
2022/10/16 06:38:01;;;;;;;13.93;7.90;;;;;;;13.07;100.00;100726.69;5045033;28;20625;-71
2022/10/16 06:40:27;;;;;;;12.03;7.27;;;;;;;13.08;100.00;100720.53;5045180;28;21574;-71
2022/10/16 06:42:55;;;;;;;10.93;7.60;;;;;;;13.07;100.00;100735.38;5048504;28;20207;-71
2022/10/16 06:45:21;;;;;;;11.80;7.20;;;;;;;13.06;100.00;100738.88;5045005;28;20203;-72
2022/10/16 06:47:48;;;;;;;12.33;8.10;;;;;;;13.09;100.00;100740.56;5039546;28;20221;-71
2022/10/16 06:50:16;;;;;;;10.27;7.33;;;;;;;13.12;100.00;100742.22;5044039;28;20205;-72
2022/10/16 06:52:42;;;;;;;10.03;7.17;;;;;;;13.14;100.00;100740.38;5042289;28;20646;-72
2022/10/16 06:55:08;;;;;;;11.20;6.97;;;;;;;13.20;100.00;100742.81;5043653;28;20224;-72
2022/10/16 06:57:35;;;;;;;12.20;7.43;;;;;;;13.31;100.00;100756.38;5047424;28;20732;-70
2022/10/16 07:00:01;;;;;;;11.33;7.13;;;;;;;13.41;100.00;100755.16;5046706;28;20207;-71
2022/10/16 07:02:28;;;;;;;8.30;6.30;;;;;;;13.54;100.00;100736.38;5045946;28;20196;-72
2022/10/16 07:04:54;;;;;;;12.43;7.57;;;;;;;13.62;100.00;100748.28;5044085;28;20206;-71
2022/10/16 07:07:24;;;;;;;10.23;7.33;;;;;;;13.71;100.00;100754.94;5045691;28;20236;-72
2022/10/16 07:09:50;;;;;;;11.23;7.47;;;;;;;13.77;100.00;100761.72;5043527;28;20632;-72
2022/10/16 07:12:17;;;;;;;12.20;7.60;;;;;;;13.83;100.00;100761.50;5044316;28;20663;-69
2022/10/16 07:14:43;;;;;;;11.37;7.97;;;;;;;13.88;100.00;100769.19;5046823;28;20784;-72
2022/10/16 07:17:10;;;;;;;11.53;8.33;;;;;;;13.97;100.00;100769.72;5043671;28;20210;-68
2022/10/16 07:19:37;;;;;;;13.53;9.00;;;;;;;14.05;100.00;100758.06;5044116;28;20195;-69
2022/10/16 07:22:04;;;;;;;11.23;7.97;;;;;;;14.09;100.00;100760.53;5047632;28;20827;-70
2022/10/16 07:24:32;;;;;;;13.37;6.33;;;;;;;14.15;100.00;100754.19;5038508;28;20198;-70
2022/10/16 07:26:58;;;;;;;11.70;7.17;;;;;;;14.22;100.00;100762.66;5045553;28;20210;-69
2022/10/16 07:29:25;;;;;;;11.77;7.03;;;;;;;14.29;100.00;100770.22;5043628;28;20299;-70
2022/10/16 07:31:51;;;;;;;12.13;7.33;;;;;;;14.34;100.00;100772.69;5046055;28;20206;-70
2022/10/16 07:34:21;;;;;;;10.37;6.30;;;;;;;14.38;100.00;100771.63;5044661;28;20188;-69
2022/10/16 07:36:48;;;;;;;15.67;7.20;;;;;;;14.43;100.00;100771.47;5041976;28;20203;-69
2022/10/16 07:39:15;;;;;;;15.30;8.80;;;;;;;14.48;100.00;100774.75;5045586;28;20215;-70
2022/10/16 07:41:42;;;;;;;14.60;8.13;;;;;;;14.56;100.00;100765.66;5043320;28;20207;-72
2022/10/16 07:44:09;;;;;;;6.83;5.40;;;;;;;14.68;100.00;100771.34;5040324;28;20524;-72
2022/10/16 07:46:36;;;;;;;7.77;5.37;;;;;;;14.74;100.00;100782.47;5048514;28;20195;-70
2022/10/16 07:49:02;;;;;;;6.07;4.30;;;;;;;14.82;100.00;100792.63;5034095;28;20306;-71
2022/10/16 07:51:29;;;;;;;9.00;5.50;;;;;;;14.87;100.00;100793.28;5040993;28;20574;-70
2022/10/16 07:53:56;;;;;;;7.50;4.77;;;;;;;14.91;100.00;100791.41;5046678;28;20200;-70
2022/10/16 07:56:23;;;;;;;6.80;4.80;;;;;;;14.91;100.00;100801.91;5046964;28;20209;-70
2022/10/16 07:58:51;;;;;;;6.87;4.70;;;;;;;14.94;100.00;100813.13;5038739;28;20329;-70
2022/10/16 08:01:18;;;;;;;7.73;4.60;;;;;;;15.00;100.00;100812.00;5047219;28;20206;-71
2022/10/16 08:03:45;;;;;;;7.67;4.83;;;;;;;15.06;100.00;100814.41;5021961;28;20210;-72
2022/10/16 08:06:12;;;;;;;8.90;5.77;;;;;;;15.13;100.00;100815.00;5043386;28;20667;-70
2022/10/16 08:08:38;;;;;;;9.43;5.30;;;;;;;15.22;100.00;100825.09;5044342;28;20718;-72
2022/10/16 08:11:06;;;;;;;7.17;4.50;;;;;;;15.39;100.00;100820.91;5047077;28;20213;-71
2022/10/16 08:13:32;;;;;;;7.80;4.63;;;;;;;15.52;100.00;100822.94;5046415;28;20195;-71
2022/10/16 08:16:01;;;;;;;7.00;4.63;;;;;;;15.61;100.00;100826.94;5046384;28;20192;-72
2022/10/16 08:18:27;;;;;;;5.17;4.20;;;;;;;15.66;100.00;100829.38;5040004;28;20651;-71
2022/10/16 08:20:57;;;;;;;7.43;5.00;;;;;;;15.70;100.00;100826.50;5044850;28;20206;-71
2022/10/16 08:23:25;;;;;;;7.40;4.33;;;;;;;15.76;100.00;100824.56;5045492;28;20206;-71
2022/10/16 08:25:52;;;;;;;8.10;4.90;;;;;;;15.85;100.00;100822.41;5048021;28;20218;-71
2022/10/16 08:28:18;;;;;;;8.80;5.17;;;;;;;15.98;100.00;100824.47;5059804;22;20235;-74
2022/10/16 08:30:45;;;;;;;5.57;4.00;;;;;;;16.12;100.00;100834.38;5043418;28;20199;-73
2022/10/16 08:33:12;;;;;;;6.67;3.90;;;;;;;16.24;100.00;100831.16;5037772;28;20205;-73
2022/10/16 08:35:39;;;;;;;4.83;3.50;;;;;;;16.37;100.00;100831.44;5033026;28;20264;-73
2022/10/16 08:38:06;;;;;;;5.33;3.77;;;;;;;16.45;100.00;100840.69;5035216;28;20192;-73
2022/10/16 08:40:34;;;;;;;4.83;2.57;;;;;;;16.54;100.00;100830.66;5055686;22;20227;-71
2022/10/16 08:43:20;;;;;;;3.30;2.53;;;;;;;16.71;100.00;100835.09;5022993;28;20223;-71
2022/10/16 08:46:04;;;;;;;3.40;2.83;;;;;;;16.85;100.00;100827.41;5025742;28;20195;-71
2022/10/16 08:48:39;;;;;;;3.37;2.57;;;;;;;17.08;100.00;100836.81;5024508;28;20683;-71
2022/10/16 08:51:07;;;;;;;2.93;2.33;;;;;;;17.22;100.00;100846.66;5013750;28;20219;-72
2022/10/16 08:53:41;;;;;;;3.10;2.50;;;;;;;17.28;100.00;100845.50;5015475;28;20200;-71
2022/10/16 08:56:07;;;;;;;3.90;2.23;;;;;;;17.35;100.00;100836.34;5016874;28;20195;-71
2022/10/16 08:58:34;;;;;;;2.40;2.10;;;;;;;17.39;100.00;100836.09;5003023;28;20203;-72
2022/10/16 09:01:03;;;;;;;2.33;2.10;;;;;;;17.42;100.00;100835.09;5023269;28;20235;-71
2022/10/16 09:03:43;;;;;;;3.20;1.97;;;;;;;17.45;100.00;100836.72;5022734;28;20200;-71
2022/10/16 09:06:30;;;;;;;2.00;1.80;;;;;;;17.46;100.00;100846.34;5023141;28;20204;-73
2022/10/16 09:09:11;;;;;;;1.80;1.50;;;;;;;17.48;100.00;100841.81;5023521;28;20227;-71
2022/10/16 09:11:47;;;;;;;1.67;1.57;;;;;;;17.45;100.00;100842.84;5024469;28;20523;-71
2022/10/16 09:14:36;;;;;;;1.40;1.30;;;;;;;17.43;100.00;100850.00;5022064;28;20204;-71
2022/10/16 09:17:17;;;;;;;2.57;1.40;;;;;;;17.44;100.00;100854.31;5028897;28;20413;-71
2022/10/16 09:19:52;;;;;;;2.10;1.70;;;;;;;17.47;100.00;100856.78;5021668;28;20206;-70
2022/10/16 09:22:22;;;;;;;2.33;1.77;;;;;;;17.51;100.00;100854.84;5023897;28;20211;-72
2022/10/16 09:24:49;;;;;;;1.90;1.57;;;;;;;17.66;100.00;100861.09;5017103;28;20208;-72
2022/10/16 09:27:16;;;;;;;1.53;1.40;;;;;;;17.79;100.00;100870.94;5022339;28;20211;-71
2022/10/16 09:29:42;;;;;;;2.27;1.30;;;;;;;17.96;100.00;100872.72;5026105;28;20220;-72
2022/10/16 09:32:13;;;;;;;1.47;1.37;;;;;;;18.12;100.00;100875.41;5021247;28;20276;-71
2022/10/16 09:34:46;;;;;;;1.90;1.40;;;;;;;18.19;100.00;100888.25;5017963;28;20282;-71
2022/10/16 09:37:15;;;;;;;1.30;1.00;;;;;;;18.13;100.00;100887.66;5022209;28;20291;-72
2022/10/16 09:39:46;;;;;;;1.23;1.10;;;;;;;18.13;100.00;100886.78;5022473;28;20200;-72
2022/10/16 09:42:15;;;;;;;1.10;0.90;;;;;;;18.16;100.00;100886.63;5023412;28;20287;-69
2022/10/16 09:44:42;;;;;;;1.23;1.00;;;;;;;18.15;100.00;100882.28;5020006;28;20207;-69
2022/10/16 09:47:17;;;;;;;0.70;0.70;;;;;;;18.26;100.00;100887.84;5022338;28;20196;-69
2022/10/16 09:49:53;;;;;;;1.07;0.90;;;;;;;18.57;100.00;100901.16;5023107;28;20326;-69
2022/10/16 09:52:20;;;;;;;0.97;0.83;;;;;;;18.71;100.00;100906.50;5020469;28;20226;-69
2022/10/16 09:54:51;;;;;;;1.13;0.87;;;;;;;18.72;100.00;100905.59;5016687;28;20700;-69
2022/10/16 09:57:18;;;;;;;0.70;0.70;;;;;;;18.96;100.00;100908.69;5020950;28;20208;-69
2022/10/16 09:59:48;;;;;;;0.57;0.50;;;;;;;19.20;100.00;100908.19;5018108;28;20774;-69
2022/10/16 10:02:16;;;;;;;0.70;0.57;;;;;;;19.26;100.00;100916.63;5020884;28;20258;-72
2022/10/16 10:04:49;;;;;;;0.70;0.60;;;;;;;19.17;100.00;100911.88;5015296;28;20323;-71
2022/10/16 10:07:24;;;;;;;0.60;0.60;;;;;;;19.30;100.00;100909.38;5019195;28;20808;-71
2022/10/16 10:09:51;;;;;;;0.97;0.50;;;;;;;19.48;100.00;100910.94;5020567;28;20223;-71
2022/10/16 10:12:21;;;;;;;0.77;0.40;;;;;;;19.53;100.00;100909.81;5021228;28;20637;-71
2022/10/16 10:14:49;;;;;;;0.40;0.40;;;;;;;19.44;100.00;100917.34;5022989;28;20191;-71
2022/10/16 10:17:19;;;;;;;0.40;0.40;;;;;;;19.17;100.00;100918.94;5023781;28;20196;-72
2022/10/16 10:19:49;;;;;;;0.32;0.32;;;;;;;18.92;100.00;100913.25;5025047;28;20286;-71
2022/10/16 10:22:42;;;;;;;0.30;0.30;;;;;;;18.81;100.00;100902.41;5020013;28;20220;-72
2022/10/16 10:25:31;;;;;;;0.40;0.40;;;;;;;18.75;100.00;100908.06;5016868;28;20643;-72
2022/10/16 10:28:10;;;;;;;0.50;0.50;;;;;;;18.93;100.00;100911.50;5018676;28;20665;-71
2022/10/16 10:30:44;;;;;;;0.40;0.40;;;;;;;19.18;100.00;100912.72;5022890;28;20719;-71
2022/10/16 10:33:22;;;;;;;0.50;0.50;;;;;;;19.37;100.00;100915.16;5019906;28;20207;-71
2022/10/16 10:35:56;;;;;;;0.30;0.30;;;;;;;19.45;100.00;100913.78;5020004;28;20206;-70
2022/10/16 10:38:33;;;;;;;0.30;0.30;;;;;;;19.58;100.00;100910.41;5017578;28;20202;-71
2022/10/16 10:41:14;;;;;;;0.43;0.43;;;;;;;19.60;100.00;100912.00;5022055;28;20223;-71
2022/10/16 10:43:55;;;;;;;0.23;0.23;;;;;;;19.66;100.00;100926.66;5025690;28;20493;-71
2022/10/16 10:46:33;;;;;;;1.07;0.40;;;;;;;19.75;100.00;100934.09;5017282;28;20234;-71
2022/10/16 10:49:14;;;;;;;0.37;0.37;;;;;;;19.73;100.00;100935.06;5018288;28;20843;-71
2022/10/16 10:51:47;;;;;;;0.40;0.40;;;;;;;19.73;100.00;100933.28;5027454;28;20558;-72
2022/10/16 10:54:26;;;;;;;0.40;0.40;;;;;;;19.67;100.00;100938.94;5025796;28;20215;-72
2022/10/16 10:57:00;;;;;;;0.30;0.30;;;;;;;19.73;100.00;100935.91;5026848;28;20287;-71
2022/10/16 10:59:38;;;;;;;0.30;0.30;;;;;;;19.81;100.00;100938.16;5028621;28;20195;-71
2022/10/16 11:02:14;;;;;;;0.30;0.30;;;;;;;19.78;100.00;100930.41;5021405;28;20219;-70
2022/10/16 11:04:58;;;;;;;0.30;0.30;;;;;;;19.75;100.00;100925.28;5005526;28;20208;-71
2022/10/16 11:07:28;;;;;;;0.30;0.30;;;;;;;19.75;100.00;100938.50;5022405;28;20929;-72
2022/10/16 11:10:00;;;;;;;0.30;0.30;;;;;;;19.66;100.00;100943.38;5026344;28;20223;-71
2022/10/16 11:12:30;;;;;;;0.30;0.30;;;;;;;19.51;100.00;100941.63;5022147;28;20208;-71
2022/10/16 11:15:02;;;;;;;0.40;0.40;;;;;;;19.42;100.00;100936.91;5024087;28;20211;-70
2022/10/16 11:17:36;;;;;;;0.47;0.47;;;;;;;19.51;100.00;100935.47;5023859;28;20451;-71
2022/10/16 11:20:12;;;;;;;0.20;0.20;;;;;;;19.46;100.00;100936.59;5022794;28;20200;-71
2022/10/16 11:22:43;;;;;;;0.30;0.30;;;;;;;19.41;100.00;100937.81;5023965;28;20732;-70